Terminal Aerodrome Forecast
Issued by NWS

Home | Current Version | Previous Version | Text Only | Print | Product List | Glossary On
Versions: 1 2 3 4 5 6 7 8 9 10 11 12 13 14 15 16 17 18 19 20 21 22 23
000
FTUS43 KDMX 282324
TAFFOD
TAF
KFOD 282324Z 2900/2924 35005KT P6SM BKN045
     FM290600 VRB03KT P6SM BKN025
     FM291100 VRB03KT 4SM BR OVC015
     FM291400 03005KT P6SM BKN040=

USA.gov is the U.S. government's official web portal to all federal, state and local government web resources and services.